createdAt,value
2018-06-04T00:00:20.649Z,16.70
2018-06-04T00:02:50.189Z,16.80
2018-06-04T00:05:19.915Z,16.70
2018-06-04T00:07:49.279Z,16.60
2018-06-04T00:10:18.656Z,16.40
2018-06-04T00:12:48.605Z,16.40
2018-06-04T00:15:17.996Z,16.10
2018-06-04T00:17:47.372Z,16.10
2018-06-04T00:20:17.240Z,16.20
2018-06-04T00:22:46.925Z,16.30
2018-06-04T00:25:16.641Z,16.30
2018-06-04T00:27:46.920Z,16.40
2018-06-04T00:30:16.857Z,16.40
2018-06-04T00:32:46.400Z,16.20
2018-06-04T00:35:16.297Z,16.40
2018-06-04T00:37:45.760Z,16.30
2018-06-04T00:40:15.204Z,16.20
2018-06-04T00:42:45.069Z,16.20
2018-06-04T00:45:14.494Z,16.10
2018-06-04T00:47:43.854Z,16.10
2018-06-04T00:50:14.126Z,16.20
2018-06-04T00:52:43.697Z,16.10
2018-06-04T00:55:13.184Z,16.00
2018-06-04T00:57:43.195Z,15.60
2018-06-04T01:00:12.634Z,15.50
2018-06-04T01:02:42.085Z,15.50
2018-06-04T01:05:11.901Z,15.60
2018-06-04T01:07:41.591Z,15.80
2018-06-04T01:10:11.001Z,15.60
2018-06-04T01:12:41.033Z,15.40
2018-06-04T01:15:10.489Z,15.40
2018-06-04T01:17:39.948Z,15.30
2018-06-04T01:20:10.837Z,15.30
2018-06-04T01:22:40.482Z,15.40
2018-06-04T01:30:08.792Z,15.40
2018-06-04T01:32:38.576Z,15.50
2018-06-04T01:35:08.412Z,15.70
2018-06-04T01:37:38.505Z,15.70
2018-06-04T01:40:07.974Z,15.90
2018-06-04T01:42:37.681Z,15.90
2018-06-04T01:45:07.125Z,15.80
2018-06-04T01:47:36.641Z,15.80
2018-06-04T01:50:06.774Z,15.70
2018-06-04T01:52:36.728Z,15.70
2018-06-04T01:55:06.625Z,15.60
2018-06-04T01:57:36.781Z,15.50
2018-06-04T02:02:35.528Z,15.60
2018-06-04T02:05:05.622Z,15.50
2018-06-04T02:07:35.916Z,15.50
2018-06-04T02:10:05.772Z,15.50
2018-06-04T02:12:35.845Z,15.40
2018-06-04T02:15:05.514Z,15.70
2018-06-04T02:17:36.040Z,15.90
2018-06-04T02:20:06.445Z,16.00
2018-06-04T02:22:36.300Z,16.00
2018-06-04T02:25:06.087Z,16.00
2018-06-04T02:30:05.379Z,15.90
2018-06-04T02:32:34.829Z,15.80
2018-06-04T02:35:05.055Z,15.70
2018-06-04T02:37:34.935Z,15.60
2018-06-04T02:40:04.490Z,15.50
2018-06-04T02:42:35.072Z,15.50
2018-06-04T02:47:33.773Z,15.80
2018-06-04T02:50:03.335Z,15.80
2018-06-04T02:52:32.606Z,15.70
2018-06-04T02:55:01.922Z,15.70
2018-06-04T02:57:31.563Z,15.70
2018-06-04T03:00:01.544Z,15.60
2018-06-04T03:02:31.095Z,15.70
2018-06-04T03:05:01.071Z,15.70
2018-06-04T03:07:30.800Z,15.60
2018-06-04T03:10:00.490Z,15.50
2018-06-04T03:12:33.228Z,15.60
2018-06-04T03:15:03.450Z,15.70
2018-06-04T03:17:32.644Z,15.70
2018-06-04T03:20:02.231Z,15.70
2018-06-04T03:22:31.332Z,15.70
2018-06-04T03:25:00.604Z,15.70
2018-06-04T03:27:30.328Z,15.70
2018-06-04T03:29:59.570Z,15.50
2018-06-04T03:32:29.134Z,15.50
2018-06-04T03:34:58.495Z,15.20
2018-06-04T03:37:27.814Z,15.30
2018-06-04T03:39:57.062Z,15.30
2018-06-04T03:42:26.729Z,15.20
2018-06-04T03:44:56.032Z,15.20
2018-06-04T03:47:25.426Z,15.30
2018-06-04T03:49:54.847Z,15.30
2018-06-04T03:52:24.401Z,15.60
2018-06-04T03:54:53.729Z,15.50
2018-06-04T03:57:23.635Z,15.50
2018-06-04T03:59:52.763Z,15.70
2018-06-04T04:02:21.887Z,15.70
2018-06-04T04:04:51.290Z,15.80
2018-06-04T04:07:20.313Z,15.80
2018-06-04T04:09:49.750Z,15.80
2018-06-04T04:12:19.513Z,15.90
2018-06-04T04:14:50.535Z,15.80
2018-06-04T04:17:19.659Z,15.70
2018-06-04T04:19:50.424Z,15.80
2018-06-04T04:22:19.562Z,15.90
2018-06-04T04:24:48.643Z,15.80
2018-06-04T04:27:18.823Z,15.90
2018-06-04T04:29:48.434Z,15.90
2018-06-04T04:32:17.822Z,16.00
2018-06-04T04:34:47.567Z,16.00
2018-06-04T04:37:16.921Z,16.20
2018-06-04T04:39:46.286Z,16.40
2018-06-04T04:42:16.051Z,16.60
2018-06-04T04:44:45.374Z,16.70
2018-06-04T04:47:15.165Z,17.40
2018-06-04T04:50:00.772Z,18.80
2018-06-04T04:55:06.202Z,21.40
2018-06-04T04:57:35.815Z,22.10
2018-06-04T05:00:06.274Z,22.80
2018-06-04T05:02:36.165Z,22.50
2018-06-04T05:05:28.345Z,22.70
2018-06-04T05:08:05.780Z,23.30
2018-06-04T05:10:35.804Z,23.70
2018-06-04T05:13:05.832Z,23.70
2018-06-04T05:15:38.662Z,23.40
2018-06-04T05:18:11.951Z,22.40
2018-06-04T05:23:50.778Z,20.70
2018-06-04T05:26:21.845Z,20.00
2018-06-04T05:28:52.042Z,19.50
2018-06-04T05:31:30.236Z,19.10
2018-06-04T05:34:07.257Z,19.10
2018-06-04T05:39:13.657Z,19.90
2018-06-04T05:41:47.507Z,19.80
2018-06-04T05:44:17.601Z,19.30
2018-06-04T05:46:47.117Z,19.00
2018-06-04T05:49:17.532Z,19.00
2018-06-04T05:51:50.079Z,19.00
2018-06-04T05:54:20.263Z,19.30
2018-06-04T05:56:50.273Z,20.40
2018-06-04T05:59:19.818Z,21.20
2018-06-04T06:01:49.502Z,20.80
2018-06-04T06:04:19.237Z,20.70
2018-06-04T06:06:48.699Z,20.40
2018-06-04T06:09:18.056Z,20.20
2018-06-04T06:11:48.469Z,21.10
2018-06-04T06:14:19.485Z,22.30
2018-06-04T06:16:52.335Z,22.80
2018-06-04T06:19:23.471Z,24.30
2018-06-04T06:21:59.120Z,26.10
2018-06-04T06:24:32.179Z,26.70
2018-06-04T06:27:01.727Z,27.90
2018-06-04T06:29:31.196Z,28.50
2018-06-04T06:32:09.275Z,28.50
2018-06-04T06:34:39.295Z,29.90
2018-06-04T06:37:09.100Z,29.50
2018-06-04T06:39:38.414Z,30.10
2018-06-04T06:42:07.911Z,31.30
2018-06-04T06:44:50.416Z,30.20
2018-06-04T06:47:26.771Z,31.50
2018-06-04T06:52:25.439Z,33.60
2018-06-04T06:55:01.150Z,31.80
2018-06-04T06:57:36.954Z,32.30
2018-06-04T07:00:32.569Z,34.00
2018-06-04T07:03:21.448Z,32.10
2018-06-04T07:08:50.916Z,32.30
2018-06-04T07:11:24.139Z,34.50
2018-06-04T07:17:10.532Z,36.90
2018-06-04T07:19:57.289Z,30.50
2018-06-04T07:22:36.633Z,28.50
2018-06-04T07:25:10.499Z,30.50
2018-06-04T07:27:51.407Z,28.60
2018-06-04T07:39:26.321Z,26.60
2018-06-04T07:41:59.135Z,26.70
2018-06-04T07:47:51.587Z,27.20
2018-06-04T07:50:25.103Z,27.90
2018-06-04T07:52:55.009Z,28.20
2018-06-04T07:55:28.411Z,29.30
2018-06-04T07:58:02.162Z,28.30
2018-06-04T08:04:01.632Z,27.20
2018-06-04T08:06:32.765Z,27.80
2018-06-04T08:09:09.847Z,27.10
2018-06-04T08:11:48.063Z,28.00
2018-06-04T08:17:01.608Z,30.10
2018-06-04T08:19:32.880Z,30.50
2018-06-04T08:22:03.881Z,31.60
2018-06-04T08:24:41.063Z,32.90
2018-06-04T08:27:16.041Z,32.80
2018-06-04T08:29:46.723Z,33.10
2018-06-04T08:32:18.237Z,33.10
2018-06-04T08:34:48.134Z,32.30
2018-06-04T08:37:19.806Z,28.60
2018-06-04T08:39:56.620Z,28.80
2018-06-04T08:42:29.254Z,28.20
2018-06-04T08:47:35.363Z,27.70
2018-06-04T08:50:19.722Z,28.10
2018-06-04T08:56:16.872Z,30.50
2018-06-04T08:59:08.311Z,29.80
2018-06-04T09:01:46.845Z,29.70
2018-06-04T09:07:14.650Z,28.80
2018-06-04T09:09:46.451Z,29.70
2018-06-04T09:15:34.451Z,29.90
2018-06-04T09:18:16.151Z,28.50
2018-06-04T09:21:02.246Z,30.00
2018-06-04T09:23:58.605Z,31.10
2018-06-04T09:26:40.657Z,31.10
2018-06-04T09:29:13.830Z,31.00
2018-06-04T09:31:43.538Z,31.80
2018-06-04T09:41:12.134Z,29.40
2018-06-04T09:43:43.398Z,27.70
2018-06-04T09:46:13.342Z,28.40
2018-06-04T09:48:46.797Z,27.80
2018-06-04T09:54:07.814Z,28.80
2018-06-04T09:56:42.852Z,28.50
2018-06-04T09:59:13.425Z,26.90
2018-06-04T10:01:43.254Z,27.60
2018-06-04T10:07:06.995Z,28.20
2018-06-04T10:09:36.675Z,27.70
2018-06-04T10:12:11.288Z,28.00
2018-06-04T10:14:47.481Z,28.20
2018-06-04T10:21:00.733Z,28.40
2018-06-04T10:23:55.347Z,28.10
2018-06-04T10:29:47.894Z,27.60
2018-06-04T10:32:19.146Z,27.20
2018-06-04T10:34:50.534Z,27.90
2018-06-04T10:37:41.292Z,28.10
2018-06-04T10:40:21.272Z,28.20
2018-06-04T10:42:52.639Z,27.50
2018-06-04T10:45:32.320Z,27.20
2018-06-04T10:48:08.099Z,27.00
2018-06-04T10:50:40.804Z,27.30
2018-06-04T10:53:23.692Z,28.20
2018-06-04T10:56:27.371Z,27.90
2018-06-04T10:59:30.790Z,27.80
2018-06-04T11:02:07.578Z,28.10
2018-06-04T11:05:02.547Z,28.60
2018-06-04T11:07:33.492Z,29.50
2018-06-04T11:11:34.269Z,28.60
2018-06-04T11:14:22.787Z,28.20
2018-06-04T11:17:08.642Z,27.80
2018-06-04T11:20:07.035Z,27.40
2018-06-04T11:22:39.662Z,28.20
2018-06-04T11:30:50.408Z,28.90
2018-06-04T11:33:21.091Z,28.10
2018-06-04T11:35:57.990Z,28.30
2018-06-04T11:39:14.377Z,28.30
2018-06-04T11:41:50.766Z,27.60
2018-06-04T11:44:47.342Z,28.10
2018-06-04T11:47:40.017Z,28.00
2018-06-04T11:50:13.370Z,27.90
2018-06-04T11:52:48.211Z,27.60
2018-06-04T11:55:29.822Z,27.80
2018-06-04T11:58:12.896Z,27.60
2018-06-04T12:04:30.776Z,27.30
2018-06-04T12:09:43.729Z,28.10
2018-06-04T12:12:16.927Z,27.90
2018-06-04T12:14:51.404Z,27.50
2018-06-04T12:20:51.091Z,26.80
2018-06-04T12:23:21.540Z,27.10
2018-06-04T12:25:51.460Z,27.40
2018-06-04T12:28:22.400Z,27.50
2018-06-04T12:30:53.032Z,27.60
2018-06-04T12:33:48.368Z,27.90
2018-06-04T12:37:44.246Z,28.30
2018-06-04T12:40:23.173Z,28.00
2018-06-04T12:45:54.781Z,27.60
2018-06-04T12:48:30.298Z,28.00
2018-06-04T12:51:32.659Z,28.20
2018-06-04T12:54:26.617Z,28.10
2018-06-04T12:56:58.722Z,27.90
2018-06-04T12:59:33.344Z,27.40
2018-06-04T13:04:47.803Z,27.80
2018-06-04T13:18:09.872Z,28.00
2018-06-04T13:20:47.378Z,27.90
2018-06-04T13:26:36.600Z,27.60
2018-06-04T13:29:11.722Z,27.80
2018-06-04T13:31:45.069Z,28.10
2018-06-04T13:34:20.841Z,28.40
2018-06-04T13:37:02.972Z,28.20
2018-06-04T13:42:24.033Z,28.00
2018-06-04T13:45:25.861Z,28.00
2018-06-04T13:50:27.560Z,28.40
2018-06-04T13:53:05.537Z,28.40
2018-06-04T13:55:44.777Z,28.40
2018-06-04T13:58:30.903Z,28.40
2018-06-04T14:01:14.792Z,28.40
2018-06-04T14:04:23.889Z,28.50
2018-06-04T14:07:08.085Z,28.30
2018-06-04T14:10:20.405Z,28.50
2018-06-04T14:15:20.354Z,28.10
2018-06-04T14:20:22.182Z,28.30
2018-06-04T14:22:54.829Z,28.40
2018-06-04T14:25:25.522Z,28.60
2018-06-04T14:27:56.434Z,28.40
2018-06-04T14:33:43.581Z,28.30
2018-06-04T14:36:13.851Z,28.50
2018-06-04T14:39:05.848Z,28.70
2018-06-04T14:41:51.313Z,28.40
2018-06-04T14:44:22.027Z,28.60
2018-06-04T14:46:56.785Z,28.60
2018-06-04T14:49:26.578Z,28.30
2018-06-04T14:51:56.329Z,28.10
2018-06-04T14:54:34.049Z,28.10
2018-06-04T15:00:19.948Z,28.30
2018-06-04T15:05:19.233Z,28.20
2018-06-04T15:07:52.316Z,28.40
2018-06-04T15:10:39.424Z,28.30
2018-06-04T15:16:40.426Z,28.50
2018-06-04T15:19:43.441Z,28.70
2018-06-04T15:22:17.115Z,28.40
2018-06-04T15:24:48.368Z,28.40
2018-06-04T15:27:43.140Z,28.50
2018-06-04T15:30:38.097Z,28.30
2018-06-04T15:33:33.251Z,28.30
2018-06-04T15:36:12.609Z,28.30
2018-06-04T15:38:47.774Z,28.20
2018-06-04T15:41:22.057Z,28.10
2018-06-04T15:43:52.020Z,28.30
2018-06-04T15:51:55.235Z,27.90
2018-06-04T15:54:36.020Z,28.00
2018-06-04T15:57:08.969Z,28.10
2018-06-04T15:59:38.805Z,28.00
2018-06-04T16:09:11.713Z,28.00
2018-06-04T16:11:51.479Z,27.90
2018-06-04T16:14:24.254Z,28.00
2018-06-04T16:20:31.948Z,27.80
2018-06-04T16:23:09.744Z,27.60
2018-06-04T16:25:55.419Z,27.50
2018-06-04T16:28:55.913Z,27.40
2018-06-04T16:34:14.565Z,27.40
2018-06-04T16:36:47.793Z,27.50
2018-06-04T16:39:22.092Z,27.40
2018-06-04T16:41:56.709Z,27.40
2018-06-04T16:44:30.249Z,27.60
2018-06-04T16:47:02.502Z,27.70
2018-06-04T16:49:32.442Z,27.60
2018-06-04T16:52:02.519Z,27.50
2018-06-04T16:54:31.960Z,27.60
2018-06-04T16:57:03.412Z,27.40
2018-06-04T16:59:36.827Z,27.50
2018-06-04T17:02:07.161Z,27.60
2018-06-04T17:04:38.904Z,27.40
2018-06-04T17:07:08.541Z,27.40
2018-06-04T17:09:40.355Z,27.30
2018-06-04T17:12:21.855Z,27.40
2018-06-04T17:14:55.418Z,27.50
2018-06-04T17:17:25.343Z,27.60
2018-06-04T17:20:04.949Z,27.60
2018-06-04T17:22:35.133Z,27.60
2018-06-04T17:25:15.617Z,27.60
2018-06-04T17:28:16.861Z,27.60
2018-06-04T17:30:46.715Z,27.60
2018-06-04T17:33:29.263Z,27.50
2018-06-04T17:35:58.712Z,27.40
2018-06-04T17:38:30.984Z,27.10
2018-06-04T17:41:02.437Z,27.00
2018-06-04T17:43:33.638Z,27.10
2018-06-04T17:46:07.045Z,26.90
2018-06-04T17:48:39.622Z,26.80
2018-06-04T17:51:10.012Z,26.80
2018-06-04T17:53:44.350Z,26.60
2018-06-04T17:56:15.352Z,26.40
2018-06-04T17:58:52.768Z,26.50
2018-06-04T18:01:22.661Z,26.40
2018-06-04T18:03:53.149Z,26.10
2018-06-04T18:06:23.868Z,25.70
2018-06-04T18:09:06.045Z,25.70
2018-06-04T18:11:39.782Z,25.70
2018-06-04T18:14:09.293Z,25.40
2018-06-04T18:16:40.991Z,25.30
2018-06-04T18:19:11.975Z,25.10
2018-06-04T18:21:42.226Z,25.20
2018-06-04T18:24:25.019Z,25.10
2018-06-04T18:27:10.538Z,25.30
2018-06-04T18:29:44.144Z,25.40
2018-06-04T18:32:28.467Z,25.40
2018-06-04T18:34:58.033Z,25.30
2018-06-04T18:37:29.995Z,25.30
2018-06-04T18:40:03.892Z,25.10
2018-06-04T18:42:36.859Z,25.00
2018-06-04T18:45:07.193Z,24.50
2018-06-04T18:47:37.022Z,24.50
2018-06-04T18:50:07.443Z,24.50
2018-06-04T18:52:38.466Z,24.10
2018-06-04T18:55:08.598Z,24.10
2018-06-04T18:57:40.460Z,24.00
2018-06-04T19:00:10.511Z,23.70
2018-06-04T19:02:41.618Z,23.60
2018-06-04T19:05:12.702Z,23.40
2018-06-04T19:07:45.337Z,23.30
2018-06-04T19:10:14.950Z,23.20
2018-06-04T19:12:44.548Z,23.10
2018-06-04T19:15:14.363Z,23.10
2018-06-04T19:17:46.028Z,22.90
2018-06-04T19:20:15.921Z,22.80
2018-06-04T19:22:47.541Z,22.70
2018-06-04T19:25:19.610Z,22.70
2018-06-04T19:27:49.878Z,22.70
2018-06-04T19:30:22.599Z,22.70
2018-06-04T19:32:52.102Z,22.70
2018-06-04T19:35:22.026Z,22.70
2018-06-04T19:37:52.776Z,22.80
2018-06-04T19:40:39.162Z,22.80
2018-06-04T19:43:09.366Z,22.70
2018-06-04T19:48:16.944Z,22.70
2018-06-04T19:50:52.191Z,22.60
2018-06-04T19:53:23.641Z,22.50
2018-06-04T19:55:57.935Z,22.40
2018-06-04T19:58:28.792Z,22.50
2018-06-04T20:00:58.989Z,22.50
2018-06-04T20:03:32.132Z,22.50
2018-06-04T20:06:05.139Z,22.40
2018-06-04T20:08:43.961Z,22.40
2018-06-04T20:11:18.185Z,22.20
2018-06-04T20:13:49.358Z,22.20
2018-06-04T20:16:18.806Z,22.20
2018-06-04T20:18:48.219Z,21.80
2018-06-04T20:21:17.818Z,21.70
2018-06-04T20:23:48.386Z,21.50
2018-06-04T20:28:46.267Z,21.60
2018-06-04T20:31:15.607Z,21.30
2018-06-04T20:33:45.244Z,21.30
2018-06-04T20:36:15.748Z,21.10
2018-06-04T20:38:46.445Z,21.00
2018-06-04T20:41:16.582Z,20.70
2018-06-04T20:43:46.354Z,20.90
2018-06-04T20:49:07.123Z,21.00
2018-06-04T20:51:36.279Z,21.00
2018-06-04T20:54:05.486Z,21.00
2018-06-04T20:56:39.564Z,21.00
2018-06-04T20:59:08.853Z,20.80
2018-06-04T21:01:42.055Z,20.80
2018-06-04T21:04:16.050Z,20.60
2018-06-04T21:06:48.295Z,20.70
2018-06-04T21:09:18.068Z,20.80
2018-06-04T21:11:52.909Z,20.70
2018-06-04T21:14:23.639Z,20.60
2018-06-04T21:16:53.525Z,20.50
2018-06-04T21:19:23.927Z,20.50
2018-06-04T21:21:52.950Z,20.50
2018-06-04T21:24:22.558Z,20.30
2018-06-04T21:26:52.211Z,20.30
2018-06-04T21:29:21.431Z,20.30
2018-06-04T21:31:51.687Z,20.30
2018-06-04T21:34:20.955Z,20.30
2018-06-04T21:36:50.108Z,20.30
2018-06-04T21:39:22.010Z,20.40
2018-06-04T21:41:51.543Z,20.20
2018-06-04T21:44:21.146Z,20.40
2018-06-04T21:46:50.434Z,20.30
2018-06-04T21:49:23.136Z,20.10
2018-06-04T21:51:52.770Z,20.00
2018-06-04T21:54:23.808Z,20.00
2018-06-04T21:56:54.137Z,20.00
2018-06-04T21:59:23.726Z,20.00
2018-06-04T22:01:53.100Z,20.10
2018-06-04T22:04:22.526Z,20.10
2018-06-04T22:06:52.179Z,20.10
2018-06-04T22:09:21.465Z,20.00
2018-06-04T22:11:50.899Z,19.80
2018-06-04T22:16:50.914Z,19.80
2018-06-04T22:19:20.433Z,19.80
2018-06-04T22:21:50.141Z,19.80
2018-06-04T22:24:19.377Z,19.80
2018-06-04T22:26:49.584Z,19.60
2018-06-04T22:29:19.138Z,19.80
2018-06-04T22:31:48.384Z,19.80
2018-06-04T22:34:17.841Z,19.60
2018-06-04T22:36:47.694Z,19.50
2018-06-04T22:39:17.021Z,19.60
2018-06-04T22:41:46.377Z,19.50
2018-06-04T22:44:15.829Z,19.60
2018-06-04T22:46:47.814Z,19.30
2018-06-04T22:49:17.234Z,19.30
2018-06-04T22:51:46.549Z,19.30
2018-06-04T22:54:15.889Z,19.30
2018-06-04T22:56:45.140Z,19.30
2018-06-04T22:59:14.791Z,19.20
2018-06-04T23:01:45.049Z,19.10
2018-06-04T23:04:15.546Z,19.10
2018-06-04T23:06:45.492Z,19.20
2018-06-04T23:09:14.656Z,19.10
2018-06-04T23:11:43.916Z,19.00
2018-06-04T23:14:13.346Z,19.00
2018-06-04T23:16:43.807Z,19.00
2018-06-04T23:19:13.278Z,19.00
2018-06-04T23:21:42.818Z,18.90
2018-06-04T23:24:12.435Z,18.90
2018-06-04T23:26:41.558Z,18.70
2018-06-04T23:29:11.145Z,18.70
2018-06-04T23:31:44.308Z,18.70
2018-06-04T23:34:14.869Z,18.60
2018-06-04T23:36:44.688Z,18.50
2018-06-04T23:39:14.000Z,18.50
2018-06-04T23:41:43.183Z,18.40
2018-06-04T23:44:12.710Z,18.40
2018-06-04T23:46:42.430Z,18.60
2018-06-04T23:49:11.846Z,18.50
2018-06-04T23:51:41.643Z,18.70
2018-06-04T23:54:10.961Z,18.70
2018-06-04T23:56:40.086Z,18.50
